createdAt,value
2023-04-12T00:02:42.250Z,99.40
2023-04-12T00:07:09.976Z,99.10
2023-04-12T00:11:34.058Z,99.30
2023-04-12T00:16:05.441Z,99.40
2023-04-12T00:20:34.589Z,99.70
2023-04-12T00:25:09.179Z,99.90
2023-04-12T00:29:36.527Z,99.90
2023-04-12T00:34:00.598Z,99.90
2023-04-12T00:38:29.020Z,99.90
2023-04-12T00:42:53.105Z,99.90
2023-04-12T00:47:17.213Z,99.90
2023-04-12T00:51:42.472Z,99.90
2023-04-12T00:56:14.407Z,99.90
2023-04-12T01:00:38.329Z,99.90
2023-04-12T01:05:05.302Z,99.90
2023-04-12T01:09:40.012Z,99.90
2023-04-12T01:14:10.978Z,99.90
2023-04-12T01:18:42.499Z,99.90
2023-04-12T01:23:43.393Z,99.90
2023-04-12T01:28:17.259Z,99.90
2023-04-12T01:32:47.014Z,99.90
2023-04-12T01:37:12.679Z,99.90
2023-04-12T01:41:42.020Z,99.90
2023-04-12T01:46:10.146Z,99.90
2023-04-12T01:50:43.753Z,99.90
2023-04-12T01:55:11.265Z,99.90
2023-04-12T01:59:42.158Z,99.90
2023-04-12T02:04:10.795Z,99.90
2023-04-12T02:08:37.523Z,99.90
2023-04-12T02:13:02.402Z,99.90
2023-04-12T02:17:29.752Z,99.90
2023-04-12T02:21:59.528Z,99.90
2023-04-12T02:26:23.844Z,99.90
2023-04-12T02:30:48.974Z,99.90
2023-04-12T02:35:19.054Z,99.90
2023-04-12T02:39:50.067Z,99.90
2023-04-12T02:44:20.149Z,99.90
2023-04-12T02:48:58.603Z,99.90
2023-04-12T02:53:35.756Z,99.90
2023-04-12T02:58:14.095Z,99.90
2023-04-12T03:02:49.504Z,99.90
2023-04-12T03:07:24.207Z,99.90
2023-04-12T03:11:51.789Z,99.90
2023-04-12T03:16:29.701Z,99.90
2023-04-12T03:21:04.036Z,99.90
2023-04-12T03:25:29.340Z,99.90
2023-04-12T03:30:00.429Z,99.90
2023-04-12T03:34:28.800Z,99.90
2023-04-12T03:38:53.816Z,99.90
2023-04-12T03:43:20.974Z,99.90
2023-04-12T03:47:45.253Z,99.90
2023-04-12T03:52:14.117Z,99.90
2023-04-12T03:56:42.481Z,99.90
2023-04-12T04:01:19.606Z,99.90
2023-04-12T04:05:44.359Z,99.90
2023-04-12T04:10:11.788Z,99.90
2023-04-12T04:14:38.423Z,99.90
2023-04-12T04:19:06.113Z,99.90
2023-04-12T04:23:39.191Z,99.90
2023-04-12T04:28:06.194Z,99.90
2023-04-12T04:32:30.268Z,99.90
2023-04-12T04:36:54.867Z,99.90
2023-04-12T04:41:22.801Z,99.90
2023-04-12T04:45:55.716Z,99.90
2023-04-12T04:50:19.844Z,99.80
2023-04-12T04:54:43.864Z,99.30
2023-04-12T04:59:08.290Z,98.60
2023-04-12T05:03:34.294Z,97.10
2023-04-12T05:07:58.608Z,94.00
2023-04-12T05:12:26.421Z,91.30
2023-04-12T05:16:54.435Z,85.90
2023-04-12T05:21:19.872Z,81.70
2023-04-12T05:25:50.092Z,80.00
2023-04-12T05:30:15.734Z,80.40
2023-04-12T05:34:42.334Z,81.90
2023-04-12T05:39:08.177Z,84.90
2023-04-12T05:43:34.083Z,86.60
2023-04-12T05:47:59.338Z,88.50
2023-04-12T05:52:23.632Z,89.30
2023-04-12T05:56:49.443Z,89.90
2023-04-12T06:01:16.724Z,89.60
2023-04-12T06:05:41.204Z,88.70
2023-04-12T06:10:05.292Z,86.10
2023-04-12T06:14:31.390Z,85.20
2023-04-12T06:18:55.728Z,85.40
2023-04-12T06:23:19.846Z,86.60
2023-04-12T06:27:45.374Z,85.50
2023-04-12T06:32:13.116Z,82.50
2023-04-12T06:36:37.329Z,79.20
2023-04-12T06:41:01.188Z,79.00
2023-04-12T06:45:25.076Z,72.60
2023-04-12T06:49:53.248Z,69.00
2023-04-12T06:54:17.853Z,65.60
2023-04-12T06:58:41.904Z,60.80
2023-04-12T07:03:06.220Z,58.20
2023-04-12T07:07:31.510Z,56.10
2023-04-12T07:11:55.475Z,54.70
2023-04-12T07:16:19.597Z,55.40
2023-04-12T07:20:43.655Z,54.10
2023-04-12T07:25:10.989Z,51.20
2023-04-12T07:29:34.891Z,49.90
2023-04-12T07:33:59.163Z,50.00
2023-04-12T07:38:23.071Z,50.30
2023-04-12T07:42:48.497Z,50.30
2023-04-12T07:47:12.485Z,49.90
2023-04-12T07:51:36.381Z,49.60
2023-04-12T07:56:00.772Z,50.20
2023-04-12T08:00:29.710Z,49.40
2023-04-12T08:04:53.724Z,48.60
2023-04-12T08:09:17.520Z,47.20
2023-04-12T08:13:41.624Z,47.30
2023-04-12T08:18:07.103Z,46.90
2023-04-12T08:22:31.263Z,46.30
2023-04-12T08:26:56.240Z,46.20
2023-04-12T08:31:20.244Z,46.10
2023-04-12T08:35:46.353Z,46.40
2023-04-12T08:40:10.719Z,47.30
2023-04-12T08:44:38.003Z,47.20
2023-04-12T08:49:01.907Z,47.40
2023-04-12T08:53:27.481Z,47.60
2023-04-12T08:57:54.394Z,48.00
2023-04-12T09:02:18.262Z,47.10
2023-04-12T09:06:42.331Z,45.90
2023-04-12T09:11:23.327Z,45.40
2023-04-12T09:15:51.315Z,45.70
2023-04-12T09:20:25.807Z,46.50
2023-04-12T09:24:53.056Z,46.70
2023-04-12T09:29:26.232Z,46.10
2023-04-12T09:33:50.184Z,46.50
2023-04-12T09:38:14.203Z,46.20
2023-04-12T09:42:52.294Z,45.20
2023-04-12T09:47:18.258Z,45.00
2023-04-12T09:51:42.082Z,43.10
2023-04-12T09:56:07.139Z,43.30
2023-04-12T10:00:34.345Z,42.70
2023-04-12T10:05:01.744Z,42.80
2023-04-12T10:09:25.988Z,42.90
2023-04-12T10:13:50.765Z,43.40
2023-04-12T10:18:17.351Z,42.40
2023-04-12T10:22:47.377Z,40.60
2023-04-12T10:27:14.238Z,40.40
2023-04-12T10:31:38.186Z,40.30
2023-04-12T10:36:06.921Z,40.00
2023-04-12T10:40:34.273Z,41.30
2023-04-12T10:45:19.161Z,42.50
2023-04-12T10:50:24.593Z,44.80
2023-04-12T10:54:48.799Z,46.20
2023-04-12T10:59:16.511Z,47.00
2023-04-12T11:04:14.030Z,47.80
2023-04-12T11:08:41.456Z,48.70
2023-04-12T11:13:22.549Z,49.30
2023-04-12T11:17:56.506Z,49.80
2023-04-12T11:22:22.290Z,50.00
2023-04-12T11:26:46.715Z,50.00
2023-04-12T11:31:12.011Z,50.30
2023-04-12T11:35:37.463Z,50.10
2023-04-12T11:40:01.558Z,50.70
2023-04-12T11:44:26.113Z,50.70
2023-04-12T11:48:50.258Z,50.30
2023-04-12T11:53:16.539Z,49.60
2023-04-12T11:57:40.659Z,49.90
2023-04-12T12:02:17.124Z,50.00
2023-04-12T12:06:46.830Z,50.60
2023-04-12T12:11:12.459Z,50.70
2023-04-12T12:15:36.287Z,50.00
2023-04-12T12:20:01.569Z,50.60
2023-04-12T12:24:25.539Z,51.70
2023-04-12T12:28:55.224Z,52.80
2023-04-12T12:33:24.724Z,53.90
2023-04-12T12:37:56.066Z,55.40
2023-04-12T12:42:19.901Z,56.90
2023-04-12T12:46:55.300Z,58.80
2023-04-12T12:51:24.627Z,61.30
2023-04-12T12:55:48.388Z,64.70
2023-04-12T13:00:15.169Z,67.00
2023-04-12T13:04:41.781Z,68.90
2023-04-12T13:09:06.068Z,71.10
2023-04-12T13:13:30.048Z,73.50
2023-04-12T13:17:54.696Z,76.50
2023-04-12T13:22:20.095Z,81.50
2023-04-12T13:26:43.997Z,87.50
2023-04-12T13:31:08.139Z,89.50
2023-04-12T13:35:32.577Z,91.70
2023-04-12T13:39:58.047Z,95.40
2023-04-12T13:44:21.999Z,97.80
2023-04-12T13:48:46.407Z,99.40
2023-04-12T13:53:10.277Z,99.60
2023-04-12T13:57:35.623Z,99.90
2023-04-12T14:01:59.516Z,99.90
2023-04-12T14:06:23.654Z,99.90
2023-04-12T14:10:47.760Z,99.90
2023-04-12T14:15:13.974Z,99.90
2023-04-12T14:19:37.812Z,99.90
2023-04-12T14:24:01.828Z,99.90
2023-04-12T14:28:30.769Z,99.90
2023-04-12T14:32:56.474Z,99.90
2023-04-12T14:37:20.371Z,99.90
2023-04-12T14:41:44.306Z,99.90
2023-04-12T14:46:08.567Z,99.90
2023-04-12T14:50:34.129Z,99.90
2023-04-12T14:54:58.060Z,99.90
2023-04-12T14:59:22.356Z,99.90
2023-04-12T15:03:47.595Z,99.90
2023-04-12T15:08:14.059Z,99.90
2023-04-12T15:12:37.948Z,99.90
2023-04-12T15:17:01.855Z,99.90
2023-04-12T15:21:26.219Z,99.90
2023-04-12T15:25:51.414Z,99.90
2023-04-12T15:30:17.731Z,99.90
2023-04-12T15:34:41.686Z,99.90
2023-04-12T15:39:05.890Z,99.90
2023-04-12T15:43:31.313Z,99.90
2023-04-12T15:47:55.752Z,99.90
2023-04-12T15:52:19.650Z,99.90
2023-04-12T15:56:50.816Z,99.90
2023-04-12T16:01:19.603Z,99.90
2023-04-12T16:05:46.919Z,99.90
2023-04-12T16:10:11.676Z,99.90
2023-04-12T16:14:36.901Z,99.90
2023-04-12T16:19:09.862Z,99.90
2023-04-12T16:23:35.700Z,99.90
2023-04-12T16:28:02.794Z,99.90
2023-04-12T16:32:27.371Z,99.90
2023-04-12T16:36:55.737Z,99.90
2023-04-12T16:41:20.917Z,99.90
2023-04-12T16:45:47.124Z,99.90
2023-04-12T16:50:13.471Z,99.90
2023-04-12T16:54:39.153Z,99.90
2023-04-12T16:59:07.129Z,99.90
2023-04-12T17:03:31.849Z,99.90
2023-04-12T17:08:04.217Z,99.90
2023-04-12T17:12:29.478Z,99.90
2023-04-12T17:16:53.272Z,99.90
2023-04-12T17:21:18.733Z,99.90
2023-04-12T17:25:42.958Z,99.90
2023-04-12T17:30:13.073Z,99.90
2023-04-12T17:34:37.252Z,99.90
2023-04-12T17:39:04.696Z,99.90
2023-04-12T17:43:31.090Z,99.90
2023-04-12T17:47:56.487Z,99.90
2023-04-12T17:52:20.441Z,99.90
2023-04-12T17:56:44.912Z,99.90
2023-04-12T18:01:15.307Z,99.90
2023-04-12T18:05:42.143Z,99.90
2023-04-12T18:10:07.765Z,99.90
2023-04-12T18:14:31.748Z,99.90
2023-04-12T18:18:57.073Z,99.90
2023-04-12T18:23:24.952Z,99.90
2023-04-12T18:27:49.219Z,99.90
2023-04-12T18:32:13.397Z,99.90
2023-04-12T18:36:38.000Z,99.90
2023-04-12T18:41:04.199Z,99.90
2023-04-12T18:45:28.039Z,99.90
2023-04-12T18:49:54.510Z,99.90
2023-04-12T18:54:18.637Z,99.90
2023-04-12T18:58:54.587Z,99.90
2023-04-12T19:03:19.830Z,99.90
2023-04-12T19:07:43.728Z,99.90
2023-04-12T19:12:07.962Z,99.90
2023-04-12T19:16:36.221Z,99.90
2023-04-12T19:21:00.173Z,99.90
2023-04-12T19:25:31.540Z,99.90
2023-04-12T19:29:55.638Z,99.90
2023-04-12T19:34:21.486Z,99.90
2023-04-12T19:38:47.975Z,99.90
2023-04-12T19:43:16.574Z,99.90
2023-04-12T19:47:44.819Z,99.90
2023-04-12T19:52:11.104Z,99.90
2023-04-12T19:56:35.703Z,99.90
2023-04-12T20:01:02.858Z,99.90
2023-04-12T20:05:27.809Z,99.90
2023-04-12T20:09:57.843Z,99.90
2023-04-12T20:14:26.820Z,99.90
2023-04-12T20:18:56.928Z,99.90
2023-04-12T20:23:23.627Z,99.90
2023-04-12T20:27:52.320Z,99.90
2023-04-12T20:32:19.098Z,99.90
2023-04-12T20:36:45.900Z,99.90
2023-04-12T20:41:10.709Z,99.90
2023-04-12T20:45:40.046Z,99.90
2023-04-12T20:50:07.380Z,99.90
2023-04-12T20:54:36.552Z,99.90
2023-04-12T20:59:03.875Z,99.90
2023-04-12T21:03:30.724Z,99.90
2023-04-12T21:07:54.840Z,99.90
2023-04-12T21:12:19.828Z,99.90
2023-04-12T21:16:44.454Z,99.90
2023-04-12T21:21:10.278Z,99.90
2023-04-12T21:25:35.672Z,99.90
2023-04-12T21:30:00.209Z,99.90
2023-04-12T21:34:23.973Z,99.90
2023-04-12T21:38:49.493Z,99.90
2023-04-12T21:43:17.633Z,99.90
2023-04-12T21:47:43.316Z,99.90
2023-04-12T21:52:10.737Z,99.90
2023-04-12T21:56:36.273Z,99.90
2023-04-12T22:01:07.172Z,99.90
2023-04-12T22:06:04.333Z,99.90
2023-04-12T22:10:34.677Z,99.90
2023-04-12T22:15:09.146Z,99.90
2023-04-12T22:19:34.444Z,99.90
2023-04-12T22:24:10.361Z,99.90
2023-04-12T22:28:44.977Z,99.90
2023-04-12T22:33:10.848Z,99.90
2023-04-12T22:37:35.408Z,99.90
2023-04-12T22:42:06.360Z,99.90
2023-04-12T22:46:42.681Z,99.90
2023-04-12T22:51:16.691Z,99.90
2023-04-12T22:55:49.228Z,99.90
2023-04-12T23:00:19.599Z,99.90
2023-04-12T23:04:52.978Z,99.90
2023-04-12T23:09:23.785Z,99.90
2023-04-12T23:13:47.563Z,99.90
2023-04-12T23:18:12.483Z,99.90
2023-04-12T23:22:55.755Z,99.90
2023-04-12T23:27:24.345Z,99.90
2023-04-12T23:31:48.422Z,99.90
2023-04-12T23:36:16.491Z,99.90
2023-04-12T23:40:40.332Z,99.90
2023-04-12T23:45:01.842Z,99.90
2023-04-12T23:49:26.688Z,99.90
2023-04-12T23:53:51.774Z,99.90
2023-04-12T23:58:19.425Z,99.90
